Nearby METAR Reports

 

KICL - Clarinda, Iowa, USA
Distance from station: N 49mi, 79km
Updated: Tue, 21-Aug-2018 7:15am CDT
Mist, Overcast
Mist, Overcast
 Wind from N
Wind: N 7 mph , 11 km/h
Temperature: 64°F , 18°C
Dew Point: 63°F , 17°C
Humidity: 94%
Barometer: 30.09 inHg , 1019 hPa
Summary: Mist
Clouds: Overcast
Visibility: 4 miles , 6 km
Cloud details: Overcast 500 ft
2018/08/21 12:15 KICL 211215Z AUTO 36006KT 4SM BR OVC005 18/17 A3009 RMK AO2
KDSM - Des Moines, Iowa, USA
Distance from station: NNE 122mi, 196km
Updated: Tue, 21-Aug-2018 6:54am CDT
Mist, Few clouds
Mist, Few clouds
 Wind from NNW
Wind: NNW 9 mph , 15 km/h
Temperature: 63°F , 17°C
Dew Point: 61°F , 16°C
Humidity: 94%
Barometer: 30.00 inHg , 1015.9 hPa
Summary: Mist
Clouds: Few Clouds
Visibility: 6 miles , 10 km
Cloud details: Few Clouds 25000 ft
2018/08/21 11:54 KDSM 211154Z 33008KT 6SM BR FEW250 17/16 A3000 RMK AO2 SLP154 70018 T01670161 10189 20167 53014
KFNB - Falls City, Nebraska, USA
Distance from station: W 50mi, 80km
Updated: Tue, 21-Aug-2018 6:53am CDT
Mist, Overcast
Mist, Overcast
 Wind from NNW
Wind: NNW 8 mph , 13 km/h
Temperature: 64°F , 18°C
Dew Point: 63°F , 17°C
Humidity: 94%
Barometer: 30.07 inHg , 1018.3 hPa
Summary: Mist
Clouds: Overcast
Visibility: 4 miles , 6 km
Cloud details: Overcast 600 ft
2018/08/21 11:53 KFNB 211153Z AUTO 33007KT 4SM BR OVC006 18/17 A3007 RMK AO2 SLP176 70077 T01780172 10189 20167 51018 $
 
KMCI - Kansas City, Missouri, USA
Distance from station: S 65mi, 104km
Updated: Tue, 21-Aug-2018 6:53am CDT
Mist, Clear
Mist, Clear
 Wind from NW
Wind: NW 8 mph , 13 km/h
Temperature: 63°F , 17°C
Dew Point: 61°F , 16°C
Humidity: 94%
Barometer: 30.05 inHg , 1017.6 hPa
Summary: Mist
Clouds: Clear
Visibility: 5 miles , 8 km
2018/08/21 11:53 KMCI 211153Z 31007KT 5SM R19R/3500VP6000FT BR CLR 17/16 A3005 RMK AO2 SLP169 60000 70013 T01670161 10200 20167 51018 $
KOMA - Omaha, Nebraska, USA
Distance from station: NNW 105mi, 169km
Updated: Tue, 21-Aug-2018 6:52am CDT
Few Clouds
Few Clouds
 Wind from NNW
Wind: NNW 12 mph , 19 km/h
Temperature: 63°F , 17°C
Dew Point: 59°F , 15°C
Humidity: 88%
Barometer: 30.09 inHg , 1019 hPa
Clouds: Few Clouds
Visibility: 7 miles , 11 km
Cloud details: Few Clouds 1000 ft
Few Clouds 25000 ft
2018/08/21 11:52 KOMA 211152Z 33010KT 7SM FEW010 FEW250 17/15 A3009 RMK AO2 SLP185 70388 T01670150 10194 20167 53015 $
KRDK - Red Oak, Iowa, USA
Distance from station: N 70mi, 112km
Updated: Tue, 21-Aug-2018 7:15am CDT
Mist, Overcast
Mist, Overcast
 Wind from N
Wind: N 7 mph , 11 km/h
Temperature: 64°F , 18°C
Dew Point: 64°F , 18°C
Humidity: 100%
Barometer: 30.09 inHg , 1019 hPa
Summary: Mist
Clouds: Overcast
Visibility: 1 3/4 miles , 2.8 km
Cloud details: Overcast 400 ft
2018/08/21 12:15 KRDK 211215Z AUTO 35006KT 1 3/4SM BR OVC004 18/18 A3009 RMK AO2
 
KSTJ - Saint Joseph, Missouri, USA
Distance from station: SW 23mi, 37km
Updated: Tue, 21-Aug-2018 6:53am CDT
Mist, Clear
Mist, Clear
 Wind from N
Wind: N 6 mph , 9 km/h
Temperature: 63°F , 17°C
Dew Point: 63°F , 17°C
Humidity: 100%
Barometer: 30.05 inHg , 1017.6 hPa
Summary: Mist
Clouds: Clear
Visibility: 5 miles , 8 km
2018/08/21 11:53 KSTJ 211153Z 35005KT 5SM BR CLR 17/17 A3005 RMK AO2 SLP173 70001 T01670167 10206 20161 53022
KTOP - Topeka, Kansas, USA
Distance from station: SW 85mi, 137km
Updated: Tue, 21-Aug-2018 6:53am CDT
Clear
Clear
 Wind from WNW
Wind: WNW 7 mph , 11 km/h
Temperature: 64°F , 18°C
Dew Point: 64°F , 18°C
Humidity: 100%
Barometer: 30.06 inHg , 1017.9 hPa
Clouds: Clear
Visibility: 7 miles , 11 km
2018/08/21 11:53 KTOP 211153Z 30006KT 7SM CLR 18/18 A3006 RMK AO2 SLP174 70007 T01780178 10211 20178 51019
KICT - Wichita, Kansas, USA
Distance from station: SW 215mi, 346km
Updated: Tue, 21-Aug-2018 6:53am CDT
Clear
Clear
 Wind from NW
Wind: NW 7 mph , 11 km/h
Temperature: 63°F , 17°C
Dew Point: 61°F , 16°C
Humidity: 94%
Barometer: 30.12 inHg , 1020 hPa
Clouds: Clear
Visibility: 10 miles , 16 km
2018/08/21 11:53 KICT 211153Z 32006KT 10SM CLR 17/16 A3012 RMK AO2 SLP191 T01670161 10194 20167 53011